Time;durP1;ratioP1;P1;durP2;ratioP2;P2;SDS_P1;SDS_P2;PMS_P1;PMS_P2;Temp;Humidity;BMP_temperature;BMP_pressure;BME280_temperature;BME280_humidity;BME280_pressure;Samples;Min_cycle;Max_cycle;Signal;HPM_P1;HPM_P2
2022/06/09 00:01:55;;;;;;;30.92;16.90;;;15.00;77.90;;;;;;4088706;28;20032;-85
2022/06/09 00:04:17;;;;;;;32.90;17.25;;;15.00;77.90;;;;;;4091270;28;20023;-87
2022/06/09 00:06:21;;;;;;;30.27;16.05;;;14.90;78.60;;;;;;4087940;28;20028;-85
2022/06/09 00:08:34;;;;;;;29.85;15.32;;;14.90;78.10;;;;;;4109832;28;20062;-86
2022/06/09 00:10:39;;;;;;;30.40;16.25;;;14.90;78.10;;;;;;4088972;28;20028;-87
2022/06/09 00:12:39;;;;;;;29.65;15.73;;;14.90;78.20;;;;;;4107033;28;20398;-88
2022/06/09 00:14:41;;;;;;;41.70;16.23;;;14.90;78.20;;;;;;4087240;28;20075;-87
2022/06/09 00:16:46;;;;;;;31.92;15.45;;;14.90;78.50;;;;;;4072047;29;20123;-86
2022/06/09 00:18:46;;;;;;;28.30;14.82;;;14.90;78.60;;;;;;4094088;28;20035;-86
2022/06/09 00:21:00;;;;;;;30.08;16.15;;;14.80;78.50;;;;;;4090710;28;20035;-86
2022/06/09 00:23:01;;;;;;;33.67;17.88;;;14.90;78.80;;;;;;4102066;28;20027;-87
2022/06/09 00:25:17;;;;;;;27.17;16.33;;;14.80;79.10;;;;;;4088640;28;20206;-87
2022/06/09 00:27:21;;;;;;;33.40;16.73;;;14.90;79.80;;;;;;4092644;28;20078;-87
2022/06/09 00:29:22;;;;;;;36.30;16.02;;;14.80;79.00;;;;;;4095034;28;20060;-88
2022/06/09 00:31:24;;;;;;;31.27;17.55;;;14.80;79.10;;;;;;4089801;28;20034;-87
2022/06/09 00:33:25;;;;;;;32.80;17.08;;;14.70;79.10;;;;;;4103112;28;20046;-86
2022/06/09 00:35:25;;;;;;;30.30;16.15;;;14.80;79.30;;;;;;4090811;28;20035;-85
2022/06/09 00:37:26;;;;;;;29.27;16.10;;;14.70;79.00;;;;;;4077707;29;20035;-86
2022/06/09 00:39:27;;;;;;;29.15;15.38;;;14.70;79.10;;;;;;4088203;28;20047;-87
2022/06/09 00:41:37;;;;;;;32.28;17.25;;;14.80;79.20;;;;;;4090046;28;20110;-87
2022/06/09 00:43:47;;;;;;;37.47;17.50;;;14.70;79.60;;;;;;4086977;28;20030;-85
2022/06/09 00:46:07;;;;;;;28.80;15.73;;;14.70;79.80;;;;;;4094433;28;20027;-87
2022/06/09 00:48:40;;;;;;;26.48;14.45;;;14.70;79.70;;;;;;4084690;28;20032;-87
2022/06/09 00:50:55;;;;;;;23.95;14.45;;;14.70;79.50;;;;;;4007373;29;20045;-87
2022/06/09 00:53:01;;;;;;;29.48;15.43;;;14.70;79.60;;;;;;4015403;29;20227;-87
2022/06/09 00:55:06;;;;;;;22.63;13.63;;;14.70;79.50;;;;;;4033117;29;20112;-87
2022/06/09 00:57:34;;;;;;;25.45;13.98;;;14.70;79.40;;;;;;4018807;29;20188;-87
2022/06/09 00:59:40;;;;;;;22.25;12.90;;;14.70;79.70;;;;;;4019780;29;20049;-86
2022/06/09 01:01:42;;;;;;;22.65;13.07;;;14.70;79.40;;;;;;4032980;29;20045;-87
2022/06/09 01:03:52;;;;;;;24.02;13.82;;;14.70;79.40;;;;;;4037016;29;20044;-87
2022/06/09 01:06:06;;;;;;;25.95;14.45;;;14.70;79.50;;;;;;4015617;29;20389;-87
2022/06/09 01:08:08;;;;;;;;;;;14.70;79.60;;;;;;4031473;29;20253;-86
2022/06/09 01:10:09;;;;;;;20.42;12.80;;;14.80;80.30;;;;;;4022524;29;19920;-87
2022/06/09 01:12:35;;;;;;;24.33;14.18;;;14.80;79.20;;;;;;4031456;29;20037;-86
2022/06/09 01:14:41;;;;;;;22.75;13.07;;;14.70;79.70;;;;;;4034532;29;20056;-87
2022/06/09 01:17:19;;;;;;;21.35;13.95;;;14.80;79.40;;;;;;3998554;29;20042;-86
2022/06/09 01:19:47;;;;;;;18.75;12.10;;;14.80;79.90;;;;;;4019203;29;20045;-87
2022/06/09 01:22:16;;;;;;;19.33;12.52;;;14.80;79.80;;;;;;4045874;29;20438;-86
2022/06/09 01:24:53;;;;;;;19.30;12.27;;;14.80;79.80;;;;;;4042082;29;20039;-86
2022/06/09 01:27:15;;;;;;;25.95;13.30;;;14.80;79.80;;;;;;4043565;29;20033;-86
2022/06/09 01:29:18;;;;;;;22.67;13.60;;;14.80;79.50;;;;;;4057337;29;20067;-89
2022/06/09 01:31:31;;;;;;;25.45;13.73;;;14.90;79.50;;;;;;4044721;29;20041;-86
2022/06/09 01:33:47;;;;;;;25.88;14.65;;;14.80;79.50;;;;;;4049447;29;20538;-85
2022/06/09 01:36:03;;;;;;;20.15;12.90;;;14.90;79.60;;;;;;4057416;29;20119;-85
2022/06/09 01:38:04;;;;;;;23.10;14.05;;;14.90;79.50;;;;;;4050780;29;20519;-87
2022/06/09 01:40:08;;;;;;;22.50;14.32;;;14.90;79.30;;;;;;4043178;29;20119;-87
2022/06/09 01:42:32;;;;;;;19.45;12.60;;;14.90;79.30;;;;;;4047073;29;20028;-85
2022/06/09 01:44:33;;;;;;;21.25;13.18;;;14.90;79.50;;;;;;4056689;29;20044;-85
2022/06/09 01:46:36;;;;;;;20.10;13.05;;;15.00;79.40;;;;;;4033064;29;20452;-88
2022/06/09 01:48:36;;;;;;;;;;;14.90;79.20;;;;;;4042182;29;20576;-86
2022/06/09 01:50:58;;;;;;;19.95;12.50;;;14.90;79.90;;;;;;4059951;29;19919;-86
2022/06/09 01:53:04;;;;;;;24.00;13.30;;;14.90;79.20;;;;;;4028977;29;20033;-86
2022/06/09 01:55:07;;;;;;;24.42;13.35;;;14.90;78.90;;;;;;4039829;29;20068;-87
2022/06/09 01:57:15;;;;;;;21.40;13.68;;;14.90;78.90;;;;;;4086162;28;20058;-85
2022/06/09 01:59:28;;;;;;;23.75;13.90;;;14.90;79.00;;;;;;4108733;28;20081;-86
2022/06/09 02:01:42;;;;;;;21.13;14.00;;;14.90;79.10;;;;;;4106805;28;20023;-86
2022/06/09 02:03:47;;;;;;;20.65;13.55;;;14.90;79.90;;;;;;4102611;28;20035;-87
2022/06/09 02:05:58;;;;;;;26.20;15.55;;;14.90;78.90;;;;;;4105995;28;20515;-85
2022/06/09 02:08:07;;;;;;;23.70;14.88;;;14.90;79.10;;;;;;4106204;28;20027;-87
2022/06/09 02:10:33;;;;;;;25.10;14.68;;;14.80;79.00;;;;;;4084246;28;20409;-87
2022/06/09 02:12:34;;;;;;;22.27;13.98;;;14.90;79.10;;;;;;4102782;28;20042;-86
2022/06/09 02:14:41;;;;;;;23.38;14.38;;;14.90;79.00;;;;;;4091211;28;20378;-86
2022/06/09 02:16:49;;;;;;;22.17;15.52;;;14.90;79.10;;;;;;4105105;28;20389;-87
2022/06/09 02:18:56;;;;;;;20.42;12.48;;;14.90;79.10;;;;;;4093153;28;20063;-87
2022/06/09 02:21:26;;;;;;;25.38;15.25;;;14.90;79.10;;;;;;4086213;28;20028;-86
2022/06/09 02:23:30;;;;;;;24.52;14.27;;;14.90;79.60;;;;;;4084631;28;20050;-87
2022/06/09 02:25:33;;;;;;;25.33;14.48;;;14.90;79.10;;;;;;4081622;28;20076;-86
2022/06/09 02:27:34;;;;;;;25.17;14.50;;;14.90;79.00;;;;;;4086531;28;20115;-87
2022/06/09 02:29:35;;;;;;;25.38;15.45;;;14.90;79.10;;;;;;4076495;29;20055;-85
2022/06/09 02:31:36;;;;;;;24.92;14.80;;;14.90;79.20;;;;;;4091716;28;20130;-86
2022/06/09 02:33:38;;;;;;;20.63;13.38;;;14.80;79.00;;;;;;4085795;28;20154;-88
2022/06/09 02:35:39;;;;;;;23.30;14.50;;;15.00;79.10;;;;;;4088020;28;20067;-86
2022/06/09 02:37:43;;;;;;;20.17;13.18;;;14.90;79.10;;;;;;4086577;28;20390;-87
2022/06/09 02:39:44;;;;;;;23.52;13.90;;;14.90;79.20;;;;;;4073313;29;20028;-87
2022/06/09 02:41:47;;;;;;;24.08;14.63;;;14.90;79.20;;;;;;4075856;29;20031;-85
2022/06/09 02:44:11;;;;;;;20.08;12.85;;;15.00;80.10;;;;;;4088903;28;20026;-87
2022/06/09 02:46:12;;;;;;;21.88;13.82;;;14.90;79.20;;;;;;4090562;28;20386;-85
2022/06/09 02:48:13;;;;;;;22.95;13.73;;;14.90;79.10;;;;;;4108280;28;20030;-87
2022/06/09 02:50:14;;;;;;;18.13;12.15;;;14.90;79.20;;;;;;4103080;28;20054;-86
2022/06/09 02:52:19;;;;;;;19.05;12.50;;;14.90;79.20;;;;;;4076674;29;20032;-86
2022/06/09 02:54:21;;;;;;;19.50;13.80;;;14.90;79.20;;;;;;4093012;28;20034;-86
2022/06/09 02:56:21;;;;;;;21.33;12.93;;;14.90;79.20;;;;;;4097922;28;20504;-87
2022/06/09 02:58:24;;;;;;;20.52;13.85;;;14.90;79.20;;;;;;4090204;28;20032;-86
2022/06/09 03:00:25;;;;;;;18.83;12.48;;;15.00;79.30;;;;;;4090065;28;20127;-86
2022/06/09 03:02:26;;;;;;;20.63;12.30;;;14.90;79.20;;;;;;4111741;28;20039;-86
2022/06/09 03:04:27;;;;;;;17.52;12.05;;;14.90;79.10;;;;;;4094313;28;20596;-87
2022/06/09 03:06:30;;;;;;;19.25;12.85;;;14.90;79.00;;;;;;4105017;28;20031;-86
2022/06/09 03:08:37;;;;;;;19.45;11.32;;;14.90;79.00;;;;;;4095585;28;20031;-86
2022/06/09 03:10:41;;;;;;;18.98;12.35;;;14.90;79.00;;;;;;4103247;28;20027;-87
2022/06/09 03:12:43;;;;;;;18.80;12.25;;;14.90;79.10;;;;;;4107429;28;20035;-85
2022/06/09 03:14:49;;;;;;;18.23;12.43;;;15.00;79.10;;;;;;4097822;28;20505;-85
2022/06/09 03:16:54;;;;;;;20.35;13.25;;;14.90;79.00;;;;;;4096799;28;20117;-86
2022/06/09 03:19:04;;;;;;;18.42;11.60;;;14.90;79.00;;;;;;4082851;28;20493;-87
2022/06/09 03:21:11;;;;;;;18.13;12.05;;;14.90;79.00;;;;;;4085174;28;20371;-87
2022/06/09 03:23:20;;;;;;;15.65;9.98;;;14.90;79.10;;;;;;4105607;28;20074;-88
2022/06/09 03:25:32;;;;;;;17.48;12.00;;;14.90;79.10;;;;;;4105894;28;20019;-87
2022/06/09 03:27:41;;;;;;;18.63;12.50;;;15.00;79.20;;;;;;4112932;28;20034;-86
2022/06/09 03:29:45;;;;;;;15.98;11.95;;;15.00;79.20;;;;;;4089847;28;20141;-87
2022/06/09 03:31:46;;;;;;;18.73;12.27;;;14.90;79.20;;;;;;4088398;28;20078;-88
2022/06/09 03:33:48;;;;;;;18.58;11.63;;;15.00;80.00;;;;;;4082187;28;20028;-87
2022/06/09 03:35:50;;;;;;;18.98;12.60;;;15.00;79.20;;;;;;4094251;28;20043;-87
2022/06/09 03:37:59;;;;;;;17.05;12.60;;;15.00;79.20;;;;;;4097826;28;20063;-87
2022/06/09 03:40:07;;;;;;;19.00;12.50;;;15.00;79.20;;;;;;4104364;28;20046;-88
2022/06/09 03:42:14;;;;;;;17.50;11.90;;;15.00;79.20;;;;;;4097301;28;20035;-85
2022/06/09 03:44:17;;;;;;;18.20;12.50;;;15.00;79.10;;;;;;4084920;29;20434;-85
2022/06/09 03:46:20;;;;;;;17.25;12.25;;;15.00;79.10;;;;;;4091565;28;20034;-87
2022/06/09 03:48:24;;;;;;;15.85;10.82;;;15.00;79.10;;;;;;4086925;28;20462;-86
2022/06/09 03:50:30;;;;;;;15.65;10.88;;;15.00;79.10;;;;;;4091224;28;20093;-87
2022/06/09 03:52:31;;;;;;;17.55;12.35;;;15.00;79.10;;;;;;4098970;28;20033;-87
2022/06/09 03:54:46;;;;;;;16.23;11.25;;;14.90;79.00;;;;;;4098170;28;20023;-85
2022/06/09 03:56:55;;;;;;;17.27;11.70;;;15.10;79.10;;;;;;4086411;28;20036;-86
2022/06/09 03:58:56;;;;;;;17.35;11.73;;;15.00;79.00;;;;;;4089413;28;20031;-87
2022/06/09 04:01:19;;;;;;;20.70;12.25;;;15.00;79.60;;;;;;4095780;28;20153;-87
2022/06/09 04:03:40;;;;;;;17.23;10.63;;;15.00;78.80;;;;;;4105550;28;20666;-86
2022/06/09 04:05:45;;;;;;;21.15;11.00;;;15.00;78.60;;;;;;4074499;29;20102;-87
2022/06/09 04:07:45;;;;;;;15.70;11.35;;;15.00;79.40;;;;;;4107254;28;20373;-85
2022/06/09 04:10:07;;;;;;;13.70;10.23;;;15.00;78.70;;;;;;4105918;28;20031;-85
2022/06/09 04:12:27;;;;;;;15.70;10.85;;;15.00;79.40;;;;;;4108008;28;20023;-87
2022/06/09 04:14:48;;;;;;;18.33;12.60;;;15.00;78.70;;;;;;4092069;28;20036;-87
2022/06/09 04:17:18;;;;;;;18.92;12.35;;;15.00;78.70;;;;;;4086466;28;20038;-86
2022/06/09 04:19:39;;;;;;;18.70;12.98;;;15.00;78.80;;;;;;4080336;28;20331;-87
2022/06/09 04:21:41;;;;;;;21.75;13.63;;;15.00;78.80;;;;;;4100436;28;20037;-85
2022/06/09 04:23:42;;;;;;;19.38;12.77;;;15.00;78.90;;;;;;4082564;28;20744;-86
2022/06/09 04:25:42;;;;;;;19.70;12.52;;;15.00;78.90;;;;;;4094518;28;20119;-87
2022/06/09 04:27:44;;;;;;;21.67;14.13;;;15.00;79.00;;;;;;4104181;28;20505;-87
2022/06/09 04:29:45;;;;;;;17.98;12.55;;;15.10;79.10;;;;;;4097663;28;20592;-86
2022/06/09 04:32:07;;;;;;;21.63;13.00;;;15.10;79.10;;;;;;4080203;28;20095;-86
2022/06/09 04:34:10;;;;;;;19.50;13.30;;;15.10;79.10;;;;;;4101912;28;20027;-87
2022/06/09 04:36:34;;;;;;;18.40;12.30;;;15.10;79.20;;;;;;4085838;28;20055;-85
2022/06/09 04:38:50;;;;;;;18.20;13.07;;;15.10;79.10;;;;;;4086446;28;20031;-87
2022/06/09 04:40:52;;;;;;;18.08;12.70;;;15.20;79.20;;;;;;4083304;28;20023;-87
2022/06/09 04:42:56;;;;;;;19.80;13.27;;;15.10;79.00;;;;;;4064875;29;20032;-86
2022/06/09 04:44:59;;;;;;;20.17;12.85;;;15.10;78.90;;;;;;4076819;29;20532;-87
2022/06/09 04:47:03;;;;;;;20.55;12.98;;;15.10;78.90;;;;;;4088404;28;20024;-87
2022/06/09 04:49:11;;;;;;;17.02;12.10;;;15.20;79.10;;;;;;4090722;28;20031;-87
2022/06/09 04:51:16;;;;;;;18.55;12.98;;;15.10;79.10;;;;;;4088879;28;20593;-86
2022/06/09 04:53:17;;;;;;;19.98;13.82;;;15.10;79.10;;;;;;4091458;28;20045;-87
2022/06/09 04:55:18;;;;;;;19.63;14.02;;;15.20;79.20;;;;;;4078200;29;20027;-86
2022/06/09 04:57:19;;;;;;;22.23;14.82;;;15.10;79.20;;;;;;4083459;28;20028;-87
2022/06/09 04:59:20;;;;;;;19.90;12.95;;;15.30;79.40;;;;;;4091185;28;20077;-87
2022/06/09 05:01:31;;;;;;;19.50;13.77;;;15.20;79.40;;;;;;4101973;28;20413;-88
2022/06/09 05:03:32;;;;;;;22.10;13.20;;;15.30;79.60;;;;;;4104291;28;20026;-87
2022/06/09 05:06:03;;;;;;;17.42;12.35;;;15.20;79.60;;;;;;4107910;28;20050;-86
2022/06/09 05:08:33;;;;;;;14.70;10.02;;;15.30;79.70;;;;;;4095556;28;20494;-86
2022/06/09 05:10:59;;;;;;;17.83;11.48;;;15.30;79.60;;;;;;4081999;28;20397;-86
2022/06/09 05:13:12;;;;;;;14.15;9.60;;;15.30;79.80;;;;;;4038425;29;20537;-88
2022/06/09 05:15:26;;;;;;;13.02;9.48;;;15.30;79.50;;;;;;4106470;28;20038;-87
2022/06/09 05:17:27;;;;;;;14.00;9.73;;;15.30;79.50;;;;;;4102299;28;20035;-87
2022/06/09 05:19:30;;;;;;;14.20;9.30;;;15.40;79.60;;;;;;4113120;28;20027;-87
2022/06/09 05:21:31;;;;;;;;;;;15.40;79.80;;;;;;4095636;28;20036;-85
2022/06/09 05:23:35;;;;;;;13.32;8.30;;;15.40;80.50;;;;;;4096157;28;19921;-88
2022/06/09 05:25:55;;;;;;;14.43;8.57;;;15.40;79.70;;;;;;4083959;28;20074;-87
2022/06/09 05:28:01;;;;;;;10.75;8.00;;;15.40;79.60;;;;;;4076226;29;20126;-88
2022/06/09 05:30:16;;;;;;;13.85;8.73;;;15.50;79.60;;;;;;4095621;28;20023;-86
2022/06/09 05:32:17;;;;;;;14.10;8.02;;;15.50;79.70;;;;;;4095129;28;20445;-87
2022/06/09 05:34:18;;;;;;;10.60;7.43;;;15.50;79.60;;;;;;4093989;28;20039;-88
2022/06/09 05:36:19;;;;;;;10.85;7.75;;;15.50;79.70;;;;;;4091250;28;20065;-88
2022/06/09 05:45:44;;;;;;;12.43;8.02;;;15.60;80.10;;;;;;4107825;28;20061;-88
2022/06/09 05:47:54;;;;;;;11.65;7.30;;;15.60;80.00;;;;;;4092857;28;20473;-87
2022/06/09 05:49:58;;;;;;;14.98;6.40;;;15.60;80.00;;;;;;4072323;28;20325;-87
2022/06/09 05:52:06;;;;;;;17.63;6.32;;;15.70;79.80;;;;;;4099423;28;20023;-87
2022/06/09 05:54:14;;;;;;;10.32;6.28;;;15.70;79.80;;;;;;4094534;28;20030;-87
2022/06/09 05:56:31;;;;;;;8.30;6.00;;;15.70;79.70;;;;;;4073016;29;20033;-85
2022/06/09 05:58:55;;;;;;;7.43;5.40;;;15.70;79.60;;;;;;4091027;28;20023;-87
2022/06/09 06:01:16;;;;;;;10.32;5.75;;;15.80;79.50;;;;;;4114420;28;20761;-88
2022/06/09 06:03:41;;;;;;;10.07;6.07;;;15.80;79.60;;;;;;4103148;28;20122;-86
2022/06/09 06:06:50;;;;;;;8.70;6.03;;;15.80;79.50;;;;;;4098439;28;20026;-86
2022/06/09 06:08:46;;;;;;;10.35;5.80;;;15.90;79.60;;;;;;4095525;28;20154;-87
2022/06/09 06:11:07;;;;;;;8.32;5.40;;;15.90;79.70;;;;;;4101378;28;20420;-86
2022/06/09 06:13:43;;;;;;;9.95;6.07;;;15.90;79.90;;;;;;4093090;28;20049;-86
2022/06/09 06:16:04;;;;;;;9.43;5.25;;;16.00;80.00;;;;;;4116482;28;20022;-88
2022/06/09 06:18:30;;;;;;;8.68;5.22;;;16.00;79.90;;;;;;4093960;28;20023;-86
2022/06/09 06:20:53;;;;;;;7.82;5.03;;;16.10;80.10;;;;;;4100891;28;20061;-88
2022/06/09 06:23:29;;;;;;;11.73;4.47;;;16.10;79.90;;;;;;4095058;28;20381;-87
2022/06/09 06:25:51;;;;;;;8.90;4.18;;;16.00;79.80;;;;;;4110738;28;20035;-86
2022/06/09 06:28:20;;;;;;;16.52;4.35;;;16.20;79.80;;;;;;4089959;28;20081;-86
2022/06/09 06:30:49;;;;;;;7.07;4.35;;;16.20;79.80;;;;;;4108107;28;20401;-85
2022/06/09 06:33:22;;;;;;;7.00;4.47;;;16.30;79.80;;;;;;4107065;28;20025;-88
2022/06/09 06:35:47;;;;;;;8.82;4.47;;;16.30;79.80;;;;;;4107246;28;20126;-85
2022/06/09 06:38:07;;;;;;;7.97;4.70;;;16.40;79.90;;;;;;4109333;28;20030;-86
2022/06/09 06:40:28;;;;;;;7.07;4.90;;;16.40;79.80;;;;;;4092346;28;20135;-86
2022/06/09 06:42:49;;;;;;;13.30;5.30;;;16.50;79.60;;;;;;4097067;28;20066;-86
2022/06/09 06:45:14;;;;;;;6.72;4.75;;;16.50;79.40;;;;;;4111309;28;20069;-85
2022/06/09 06:47:34;;;;;;;9.38;5.07;;;16.60;79.30;;;;;;4098022;28;20031;-86
2022/06/09 06:49:55;;;;;;;5.65;4.47;;;16.70;79.20;;;;;;4103476;28;20031;-86
2022/06/09 06:52:18;;;;;;;9.65;5.20;;;16.70;79.10;;;;;;4097514;28;20027;-86
2022/06/09 06:54:39;;;;;;;7.07;4.50;;;16.70;78.90;;;;;;4091312;28;20043;-85
2022/06/09 06:56:39;;;;;;;7.05;4.85;;;16.80;78.80;;;;;;4097613;28;20118;-85
2022/06/09 06:58:40;;;;;;;8.05;4.85;;;16.80;78.60;;;;;;4085174;28;20028;-87
2022/06/09 07:00:43;;;;;;;8.88;5.45;;;16.80;78.30;;;;;;4113531;28;20070;-86
2022/06/09 07:02:44;;;;;;;;;;;16.80;78.10;;;;;;4085111;28;20039;-85
2022/06/09 07:04:45;;;;;;;8.00;5.07;;;16.90;77.80;;;;;;4104502;28;20398;-85
2022/06/09 07:06:46;;;;;;;10.00;5.05;;;16.90;77.70;;;;;;4117631;28;20031;-86
2022/06/09 07:08:47;;;;;;;8.63;4.65;;;16.90;77.50;;;;;;4099033;28;20721;-85
2022/06/09 07:10:48;;;;;;;7.60;4.40;;;16.90;77.30;;;;;;4090142;28;20026;-84
2022/06/09 07:12:48;;;;;;;9.98;4.07;;;17.00;77.20;;;;;;4106929;28;20410;-85
2022/06/09 07:14:49;;;;;;;7.40;3.90;;;17.00;77.10;;;;;;4110399;28;20035;-86
2022/06/09 07:16:50;;;;;;;8.75;4.10;;;17.00;76.90;;;;;;4114519;28;20509;-86
2022/06/09 07:18:50;;;;;;;7.97;3.83;;;17.00;76.70;;;;;;4090271;28;20054;-86
2022/06/09 07:20:51;;;;;;;7.05;3.97;;;17.00;76.60;;;;;;4095495;28;20028;-85
2022/06/09 07:22:58;;;;;;;6.40;4.00;;;17.00;76.50;;;;;;4112273;28;20578;-86
2022/06/09 07:24:59;;;;;;;7.40;3.53;;;17.00;76.20;;;;;;4078016;29;20110;-86
2022/06/09 07:27:00;;;;;;;8.98;3.90;;;17.00;76.00;;;;;;4092108;28;20023;-87
2022/06/09 07:29:03;;;;;;;8.63;3.80;;;17.00;75.90;;;;;;4098348;28;20023;-86
2022/06/09 07:31:06;;;;;;;10.43;4.63;;;17.00;75.40;;;;;;4113519;28;20038;-85
2022/06/09 07:33:07;;;;;;;10.05;4.05;;;17.00;75.20;;;;;;4092881;28;20401;-85
2022/06/09 07:35:10;;;;;;;7.03;3.60;;;17.00;74.90;;;;;;4092526;28;20031;-86
2022/06/09 07:37:11;;;;;;;3.50;2.63;;;17.00;74.60;;;;;;4094033;28;20035;-87
2022/06/09 07:39:11;;;;;;;4.45;2.03;;;17.00;74.60;;;;;;4116969;28;20026;-85
2022/06/09 07:41:12;;;;;;;2.28;1.50;;;17.00;74.60;;;;;;4099340;28;20794;-85
2022/06/09 07:43:13;;;;;;;3.40;1.10;;;16.90;74.60;;;;;;4100598;28;20023;-85
2022/06/09 07:45:23;;;;;;;1.00;0.80;;;16.90;74.60;;;;;;4083787;28;20020;-86
2022/06/09 07:47:26;;;;;;;0.93;0.60;;;16.90;74.70;;;;;;4113118;28;20026;-85
2022/06/09 07:49:27;;;;;;;0.50;0.45;;;16.90;74.80;;;;;;4110848;28;20078;-85
2022/06/09 07:51:38;;;;;;;1.77;1.02;;;16.90;74.80;;;;;;4102246;28;20031;-85
2022/06/09 07:53:39;;;;;;;2.55;0.55;;;16.90;75.00;;;;;;4093984;28;20031;-85
2022/06/09 07:55:39;;;;;;;1.60;0.60;;;16.90;75.10;;;;;;4109485;28;20035;-85
2022/06/09 07:57:40;;;;;;;3.30;0.80;;;16.90;75.50;;;;;;4106216;28;20201;-86
2022/06/09 07:59:42;;;;;;;1.20;0.85;;;16.90;75.40;;;;;;4112596;28;20062;-85
2022/06/09 08:01:46;;;;;;;1.50;0.90;;;17.00;75.60;;;;;;4117880;28;20451;-85
2022/06/09 08:03:46;;;;;;;;;;;16.90;75.50;;;;;;4109245;28;20035;-84
2022/06/09 08:05:48;;;;;;;0.85;0.75;;;17.00;75.70;;;;;;4084912;29;20057;-84
2022/06/09 08:07:49;;;;;;;1.05;0.95;;;17.00;75.40;;;;;;4094886;28;20031;-85
2022/06/09 08:09:50;;;;;;;1.70;1.10;;;16.90;75.50;;;;;;4081962;29;20034;-85
2022/06/09 08:11:51;;;;;;;2.35;0.88;;;17.00;75.60;;;;;;4095121;28;20015;-85
2022/06/09 08:13:52;;;;;;;1.27;1.10;;;17.00;75.90;;;;;;4114497;28;20144;-84
2022/06/09 08:15:53;;;;;;;1.00;0.90;;;17.00;76.20;;;;;;4097540;28;20036;-85
2022/06/09 08:17:56;;;;;;;3.72;1.30;;;17.00;76.20;;;;;;4110777;28;20085;-85
2022/06/09 08:19:56;;;;;;;1.88;0.70;;;17.10;76.00;;;;;;4094705;28;20603;-86
2022/06/09 08:21:57;;;;;;;0.82;0.50;;;17.10;75.70;;;;;;4101513;28;20023;-86
2022/06/09 08:23:58;;;;;;;0.82;0.50;;;17.10;75.40;;;;;;4084374;29;20102;-87
2022/06/09 08:26:00;;;;;;;0.40;0.30;;;17.10;75.30;;;;;;4092419;28;20035;-86
2022/06/09 08:28:02;;;;;;;0.32;0.10;;;17.10;75.30;;;;;;4076736;29;20159;-84
2022/06/09 08:30:05;;;;;;;1.42;0.40;;;17.20;75.00;;;;;;4094808;28;20489;-85
2022/06/09 08:32:06;;;;;;;0.63;0.20;;;17.20;75.00;;;;;;4077837;29;20063;-86
2022/06/09 08:34:08;;;;;;;0.00;0.00;;;17.20;74.70;;;;;;4080784;29;20393;-86
2022/06/09 08:36:09;;;;;;;0.10;0.10;;;17.20;74.50;;;;;;4107974;28;20038;-86
2022/06/09 08:38:10;;;;;;;0.10;0.10;;;17.20;74.30;;;;;;4099774;28;20070;-86
2022/06/09 08:40:15;;;;;;;0.17;0.17;;;17.10;74.10;;;;;;4097456;28;20032;-86
2022/06/09 08:42:42;;;;;;;0.00;0.00;;;17.10;74.10;;;;;;4118437;28;20029;-86
2022/06/09 08:44:58;;;;;;;2.17;0.10;;;17.10;74.00;;;;;;4092480;28;20028;-85
2022/06/09 08:47:14;;;;;;;0.70;0.20;;;17.10;73.90;;;;;;4106890;28;20505;-85
2022/06/09 08:49:30;;;;;;;0.20;0.10;;;17.10;73.90;;;;;;4093108;28;20030;-86
2022/06/09 08:51:47;;;;;;;1.52;0.22;;;17.00;73.70;;;;;;4112937;28;20026;-85
2022/06/09 08:54:04;;;;;;;0.52;0.30;;;17.00;73.90;;;;;;4095059;28;20056;-85
2022/06/09 08:56:16;;;;;;;0.57;0.20;;;17.00;74.00;;;;;;4092058;28;20076;-87
2022/06/09 08:58:19;;;;;;;1.85;0.30;;;17.00;74.10;;;;;;4081011;29;20117;-85
2022/06/09 09:00:24;;;;;;;3.15;0.50;;;17.00;74.10;;;;;;4096638;28;20038;-84
2022/06/09 09:02:34;;;;;;;1.98;0.50;;;16.90;74.00;;;;;;4109502;28;20054;-85
2022/06/09 09:04:42;;;;;;;1.75;0.50;;;16.90;74.00;;;;;;4097605;28;20502;-84
2022/06/09 09:06:50;;;;;;;1.13;0.57;;;16.90;74.20;;;;;;4097077;28;20111;-86
2022/06/09 09:09:11;;;;;;;0.63;0.52;;;16.90;74.30;;;;;;4108192;28;20031;-85
2022/06/09 09:11:26;;;;;;;3.03;0.45;;;16.90;73.90;;;;;;4103308;28;20033;-84
2022/06/09 09:13:50;;;;;;;0.80;0.40;;;16.90;73.80;;;;;;4101236;28;20023;-84
2022/06/09 09:15:50;;;;;;;;;;;16.90;73.70;;;;;;4092224;28;20047;-84
2022/06/09 09:18:20;;;;;;;1.35;0.73;;;16.90;73.60;;;;;;4093604;28;19997;-86
2022/06/09 09:20:52;;;;;;;1.73;0.43;;;16.90;73.50;;;;;;4089332;28;20090;-85
2022/06/09 09:23:02;;;;;;;1.35;0.57;;;16.80;73.50;;;;;;4077811;28;20069;-85
2022/06/09 09:25:25;;;;;;;3.10;0.47;;;16.80;73.50;;;;;;4112051;28;20018;-85
2022/06/09 09:27:42;;;;;;;1.42;0.60;;;16.80;74.60;;;;;;4107028;28;20088;-84
2022/06/09 09:29:55;;;;;;;2.05;0.70;;;16.90;74.30;;;;;;4110601;28;20501;-84
2022/06/09 09:31:59;;;;;;;2.85;0.65;;;16.90;74.70;;;;;;4089391;28;20618;-84
2022/06/09 09:34:03;;;;;;;2.92;0.52;;;16.90;75.00;;;;;;4092835;28;20089;-84
2022/06/09 09:36:23;;;;;;;0.77;0.70;;;17.00;74.90;;;;;;4112598;28;20045;-85
2022/06/09 09:38:30;;;;;;;1.52;0.57;;;17.00;75.00;;;;;;4097267;28;20107;-84
2022/06/09 09:40:39;;;;;;;3.20;0.65;;;17.10;74.90;;;;;;4107885;28;20111;-84
2022/06/09 09:42:43;;;;;;;2.70;0.68;;;17.20;75.10;;;;;;4108683;28;20086;-84
2022/06/09 09:45:06;;;;;;;4.03;0.50;;;17.20;75.10;;;;;;4095769;28;20154;-84
2022/06/09 09:47:22;;;;;;;;;;;17.30;75.20;;;;;;4092506;28;20307;-84
2022/06/09 09:49:31;;;;;;;2.33;0.45;;;17.40;75.00;;;;;;4112538;28;20368;-85
2022/06/09 09:51:35;;;;;;;3.72;0.57;;;17.40;74.10;;;;;;4112131;28;20035;-84
2022/06/09 09:53:47;;;;;;;4.80;0.60;;;17.50;73.60;;;;;;4110628;28;20154;-84
2022/06/09 09:56:21;;;;;;;2.17;0.60;;;17.50;73.50;;;;;;4113916;28;20443;-84
2022/06/09 09:58:39;;;;;;;4.40;0.70;;;17.60;73.30;;;;;;4102623;28;20035;-84
2022/06/09 10:00:39;;;;;;;1.13;0.57;;;17.60;73.20;;;;;;4109122;28;20043;-84
2022/06/09 10:09:59;;;;;;;5.85;0.50;;;17.80;71.10;;;;;;4094447;28;20046;-85
2022/06/09 10:12:16;;;;;;;0.95;0.45;;;17.80;71.00;;;;;;4106646;28;20026;-84
2022/06/09 10:14:38;;;;;;;2.53;0.65;;;17.80;71.00;;;;;;4093928;28;20492;-85
2022/06/09 10:16:39;;;;;;;0.82;0.40;;;17.80;70.70;;;;;;4096360;28;20027;-84
2022/06/09 10:18:44;;;;;;;0.55;0.30;;;17.80;70.80;;;;;;4104666;28;20068;-84
2022/06/09 10:21:07;;;;;;;1.95;0.60;;;17.80;70.70;;;;;;4079026;29;20708;-85
2022/06/09 10:23:17;;;;;;;4.32;1.30;;;17.90;70.50;;;;;;4111306;28;20027;-84
2022/06/09 10:25:24;;;;;;;1.42;0.65;;;17.90;70.80;;;;;;4110714;28;20030;-84
2022/06/09 10:27:34;;;;;;;0.75;0.38;;;17.90;71.10;;;;;;4102732;28;20420;-84
2022/06/09 10:29:51;;;;;;;4.35;0.52;;;18.00;71.70;;;;;;4099716;28;20122;-84
2022/06/09 10:32:10;;;;;;;1.48;0.57;;;18.10;71.60;;;;;;4099465;28;20023;-85
2022/06/09 10:34:34;;;;;;;1.55;0.50;;;18.10;71.50;;;;;;4091749;28;20022;-83
2022/06/09 10:36:53;;;;;;;2.65;0.60;;;18.20;70.30;;;;;;4106482;28;20032;-84
2022/06/09 10:39:10;;;;;;;0.82;0.60;;;18.30;70.20;;;;;;4118847;28;20019;-85
2022/06/09 10:41:15;;;;;;;1.08;0.70;;;18.40;70.00;;;;;;4088667;28;20122;-86
2022/06/09 10:43:25;;;;;;;2.53;0.60;;;18.50;69.60;;;;;;4081750;29;20222;-85
2022/06/09 10:45:35;;;;;;;2.50;0.57;;;18.60;68.80;;;;;;4103312;28;20646;-84
2022/06/09 10:55:29;;;;;;;3.25;0.70;;;18.80;67.40;;;;;;4114218;28;20057;-86
2022/06/09 10:57:40;;;;;;;2.30;1.15;;;18.80;66.90;;;;;;4108841;28;20027;-86
2022/06/09 10:59:54;;;;;;;1.98;1.10;;;18.80;66.70;;;;;;4107132;28;20090;-86
2022/06/09 11:01:55;;;;;;;;;;;18.80;66.40;;;;;;4095398;28;20023;-84
2022/06/09 11:03:56;;;;;;;1.30;0.90;;;18.90;66.50;;;;;;4114346;28;20257;-85
2022/06/09 11:05:57;;;;;;;3.63;1.02;;;18.90;66.10;;;;;;4092334;28;20035;-85
2022/06/09 11:08:15;;;;;;;0.88;0.63;;;18.90;65.70;;;;;;4094307;28;20015;-86
2022/06/09 11:10:44;;;;;;;2.15;0.50;;;18.90;65.30;;;;;;4116698;28;20019;-84
2022/06/09 11:12:44;;;;;;;1.08;0.50;;;18.80;64.50;;;;;;4117028;28;20035;-85
2022/06/09 11:14:48;;;;;;;0.80;0.60;;;18.80;64.30;;;;;;4115090;28;20034;-84
2022/06/09 11:17:13;;;;;;;2.90;0.98;;;18.70;64.30;;;;;;4096024;28;20040;-84
2022/06/09 11:19:20;;;;;;;2.60;0.70;;;18.60;64.40;;;;;;4091279;28;20042;-86
2022/06/09 11:21:43;;;;;;;2.40;0.70;;;18.50;64.50;;;;;;4117381;28;20023;-84
2022/06/09 11:23:49;;;;;;;2.30;0.90;;;18.40;64.90;;;;;;4121681;28;20038;-85
2022/06/09 11:26:14;;;;;;;2.67;1.20;;;18.40;65.40;;;;;;4103614;28;20055;-85
2022/06/09 11:28:53;;;;;;;0.90;0.50;;;18.30;65.80;;;;;;4089311;29;20375;-84
2022/06/09 11:31:04;;;;;;;2.47;0.88;;;18.30;66.80;;;;;;4063228;29;20039;-84